Time;durP1;ratioP1;P1;durP2;ratioP2;P2;SDS_P1;SDS_P2;PMS_P1;PMS_P2;Temp;Humidity;BMP_temperature;BMP_pressure;BME280_temperature;BME280_humidity;BME280_pressure;Samples;Min_cycle;Max_cycle;Signal;HPM_P1;HPM_P2
2021/12/01 00:02:25;;;;;;;2.92;1.23;;;;;;;5.20;100.00;99086.25;8449292;28;20067;-80
2021/12/01 00:06:26;;;;;;;2.08;1.30;;;;;;;5.07;100.00;99078.25;8407047;28;20043;-80
2021/12/01 00:10:28;;;;;;;6.25;1.92;;;;;;;5.03;100.00;99061.50;8426634;28;20048;-81
2021/12/01 00:14:29;;;;;;;3.28;1.80;;;;;;;4.88;100.00;99058.34;8410898;28;20044;-80
2021/12/01 00:18:30;;;;;;;3.95;2.67;;;;;;;4.74;100.00;99046.78;8441698;28;20047;-83
2021/12/01 00:22:30;;;;;;;4.18;2.47;;;;;;;4.65;100.00;99031.78;8418027;28;20045;-81
2021/12/01 00:26:31;;;;;;;4.82;2.72;;;;;;;4.56;100.00;99013.00;8409119;28;20068;-80
2021/12/01 00:30:32;;;;;;;5.82;2.70;;;;;;;4.51;100.00;99021.03;8445464;28;20411;-83
2021/12/01 00:34:33;;;;;;;5.63;3.03;;;;;;;4.56;100.00;99023.09;8433489;28;20036;-79
2021/12/01 00:38:35;;;;;;;5.80;3.53;;;;;;;4.43;100.00;99029.56;8405497;28;20119;-79
2021/12/01 00:42:35;;;;;;;7.97;4.70;;;;;;;4.37;100.00;99025.00;8435863;28;20049;-78
2021/12/01 00:50:36;;;;;;;7.63;4.35;;;;;;;4.29;100.00;99041.69;8439788;28;20165;-80
2021/12/01 00:54:37;;;;;;;9.02;4.70;;;;;;;4.35;100.00;99046.22;8450870;28;20407;-79
2021/12/01 00:58:38;;;;;;;9.93;5.03;;;;;;;4.24;100.00;99033.34;8443965;28;20040;-80
2021/12/01 01:02:39;;;;;;;6.95;4.82;;;;;;;4.19;100.00;99034.00;8440238;28;20066;-81
2021/12/01 01:06:41;;;;;;;8.18;5.15;;;;;;;4.24;100.00;99033.34;8377915;28;20415;-80
2021/12/01 01:19:05;;;;;;;9.65;5.57;;;;;;;4.13;100.00;99006.84;8430460;28;20447;-79
2021/12/01 01:23:05;;;;;;;9.05;5.20;;;;;;;4.14;100.00;98992.16;8403401;28;20404;-78
2021/12/01 01:27:06;;;;;;;10.63;5.32;;;;;;;4.14;100.00;98997.63;8442800;28;20127;-80
2021/12/01 01:31:07;;;;;;;9.32;5.72;;;;;;;4.08;100.00;98986.56;8433947;28;20040;-81
2021/12/01 01:35:08;;;;;;;9.98;5.07;;;;;;;4.10;100.00;98987.16;8440480;28;20039;-80
2021/12/01 01:39:08;;;;;;;10.05;5.70;;;;;;;4.14;100.00;98983.97;8450172;28;20500;-80
2021/12/01 01:43:09;;;;;;;8.77;4.90;;;;;;;4.17;100.00;98989.81;8453552;28;20047;-79
2021/12/01 01:47:11;;;;;;;7.75;4.68;;;;;;;4.18;100.00;98980.56;8400677;28;20618;-78
2021/12/01 01:51:12;;;;;;;6.77;4.30;;;;;;;4.19;100.00;98976.75;8399417;28;20068;-78
2021/12/01 01:55:13;;;;;;;11.35;4.50;;;;;;;4.19;100.00;98973.19;8408652;28;20285;-79
2021/12/01 01:59:13;;;;;;;9.38;4.15;;;;;;;4.18;100.00;98979.72;8439009;28;20039;-81
2021/12/01 02:03:15;;;;;;;6.20;3.80;;;;;;;4.24;100.00;98970.63;8401654;28;20094;-79
2021/12/01 02:07:16;;;;;;;;;;;;;;;4.25;100.00;98961.38;8391986;28;20040;-79
2021/12/01 02:11:19;;;;;;;6.90;4.45;;;;;;;4.22;100.00;98954.47;8388842;28;19912;-81
2021/12/01 02:15:19;;;;;;;;;;;;;;;4.28;100.00;98944.56;8412309;28;20048;-81
2021/12/01 02:19:21;;;;;;;12.20;5.27;;;;;;;4.18;100.00;98931.47;8450871;28;19923;-80
2021/12/01 02:23:23;;;;;;;8.45;5.20;;;;;;;4.17;100.00;98924.38;8424221;28;20297;-84
2021/12/01 02:27:24;;;;;;;10.70;6.15;;;;;;;4.21;100.00;98920.09;8429456;28;20055;-81
2021/12/01 02:31:30;;;;;;;7.20;4.30;;;;;;;4.24;100.00;98903.28;8420080;28;20047;-81
2021/12/01 02:35:32;;;;;;;6.97;4.50;;;;;;;4.28;100.00;98901.78;8418200;28;20051;-82
2021/12/01 02:39:32;;;;;;;7.15;4.68;;;;;;;4.25;100.00;98879.56;8428462;28;20055;-80
2021/12/01 02:43:33;;;;;;;11.30;6.55;;;;;;;4.21;100.00;98870.19;8440135;28;20039;-80
2021/12/01 02:47:35;;;;;;;9.27;5.43;;;;;;;4.18;100.00;98855.13;8436219;28;20031;-80
2021/12/01 02:51:37;;;;;;;8.90;5.63;;;;;;;4.14;100.00;98844.94;8419020;28;20039;-81
2021/12/01 02:55:48;;;;;;;7.38;4.65;;;;;;;4.13;100.00;98840.50;8445861;28;20451;-81
2021/12/01 02:59:49;;;;;;;8.57;4.63;;;;;;;4.20;100.00;98847.56;8446540;28;20063;-80
2021/12/01 03:03:51;;;;;;;7.70;4.40;;;;;;;4.16;100.00;98831.88;8450029;28;20047;-81
2021/12/01 03:07:53;;;;;;;11.07;6.32;;;;;;;4.20;100.00;98833.09;8430508;28;20437;-80
2021/12/01 03:11:53;;;;;;;11.02;6.07;;;;;;;4.19;100.00;98839.59;8419284;28;20048;-81
2021/12/01 03:15:54;;;;;;;9.20;5.72;;;;;;;4.15;100.00;98822.88;8433198;28;20043;-80
2021/12/01 03:19:55;;;;;;;11.27;6.22;;;;;;;4.11;100.00;98813.50;8438307;28;20039;-81
2021/12/01 03:23:56;;;;;;;8.18;5.38;;;;;;;4.15;100.00;98814.69;8415497;28;20055;-79
2021/12/01 03:27:56;;;;;;;9.77;4.70;;;;;;;4.15;100.00;98792.06;8445551;28;20086;-80
2021/12/01 03:31:57;;;;;;;10.55;6.43;;;;;;;4.24;100.00;98779.75;8450264;28;20078;-80
2021/12/01 03:35:57;;;;;;;9.07;5.68;;;;;;;4.23;100.00;98772.63;8417802;28;20038;-79
2021/12/01 03:39:59;;;;;;;10.68;5.70;;;;;;;4.25;100.00;98765.88;8425192;28;20036;-81
2021/12/01 03:44:00;;;;;;;9.00;5.63;;;;;;;4.31;100.00;98759.50;8447530;28;20044;-80
2021/12/01 03:48:00;;;;;;;8.27;5.35;;;;;;;4.33;100.00;98751.06;8431902;28;20104;-81
2021/12/01 03:52:01;;;;;;;8.68;5.68;;;;;;;4.39;100.00;98747.38;8405509;28;20045;-80
2021/12/01 03:56:01;;;;;;;7.35;4.60;;;;;;;4.44;100.00;98735.78;8415577;28;20044;-80
2021/12/01 04:00:05;;;;;;;10.88;5.03;;;;;;;4.48;100.00;98732.31;8443453;28;20482;-82
2021/12/01 04:04:12;;;;;;;12.73;5.80;;;;;;;4.56;100.00;98729.25;8430216;28;20087;-80
2021/12/01 04:08:12;;;;;;;9.38;4.63;;;;;;;4.53;100.00;98715.25;8397459;28;20043;-79
2021/12/01 04:12:13;;;;;;;6.90;4.15;;;;;;;4.56;100.00;98707.44;8428101;28;20648;-81
2021/12/01 04:16:14;;;;;;;10.70;5.15;;;;;;;4.65;100.00;98698.88;8446508;28;20041;-80
2021/12/01 04:20:16;;;;;;;10.43;4.28;;;;;;;4.64;100.00;98680.84;8440627;28;20056;-81
2021/12/01 04:24:17;;;;;;;8.17;4.53;;;;;;;4.67;100.00;98675.75;8433662;28;20047;-80
2021/12/01 04:28:18;;;;;;;7.35;3.95;;;;;;;4.71;100.00;98654.28;8393358;28;20036;-82
2021/12/01 04:32:19;;;;;;;5.28;3.10;;;;;;;4.64;100.00;98631.72;8426535;28;20033;-80
2021/12/01 04:36:20;;;;;;;6.82;3.75;;;;;;;4.66;100.00;98616.78;8416057;28;20508;-78
2021/12/01 04:40:21;;;;;;;6.10;3.38;;;;;;;4.71;100.00;98599.69;8423177;28;20043;-79
2021/12/01 04:44:24;;;;;;;6.45;3.10;;;;;;;4.77;100.00;98601.44;8415859;28;20035;-82
2021/12/01 04:48:28;;;;;;;6.03;3.13;;;;;;;4.90;100.00;98603.88;8453586;28;20047;-80
2021/12/01 04:52:28;;;;;;;7.55;3.47;;;;;;;4.97;100.00;98610.06;8431997;28;20040;-79
2021/12/01 04:56:29;;;;;;;5.20;2.37;;;;;;;5.02;100.00;98573.81;8409214;28;20035;-81
2021/12/01 05:00:34;;;;;;;7.07;2.67;;;;;;;5.06;100.00;98580.47;8421643;28;20288;-81
2021/12/01 05:04:34;;;;;;;3.95;2.53;;;;;;;5.18;100.00;98586.69;8441512;28;20074;-80
2021/12/01 05:08:35;;;;;;;3.90;1.92;;;;;;;5.19;100.00;98571.13;8427622;28;20043;-80
2021/12/01 05:12:35;;;;;;;3.90;2.15;;;;;;;5.17;100.00;98570.53;8437533;28;20051;-80
2021/12/01 05:16:37;;;;;;;4.00;2.00;;;;;;;5.08;100.00;98550.16;8407935;28;20411;-80
2021/12/01 05:20:39;;;;;;;7.80;2.85;;;;;;;5.12;100.00;98540.44;8446205;28;20046;-79
2021/12/01 05:24:39;;;;;;;7.05;2.95;;;;;;;5.06;100.00;98583.19;8439509;28;20036;-79
2021/12/01 05:28:41;;;;;;;6.38;3.08;;;;;;;5.08;100.00;98555.63;8416651;28;20075;-80
2021/12/01 05:32:41;;;;;;;5.63;2.72;;;;;;;4.98;100.00;98562.56;8430996;28;20032;-80
2021/12/01 05:36:42;;;;;;;5.30;2.47;;;;;;;5.01;100.00;98558.53;8408063;28;20036;-80
2021/12/01 05:40:42;;;;;;;7.38;3.25;;;;;;;4.97;100.00;98522.69;8410285;28;20047;-80
2021/12/01 05:44:44;;;;;;;5.55;3.25;;;;;;;4.94;100.00;98523.19;8424330;28;20036;-80
2021/12/01 05:48:44;;;;;;;5.57;3.20;;;;;;;5.02;100.00;98516.47;8420624;28;20517;-80
2021/12/01 05:52:45;;;;;;;4.90;3.38;;;;;;;5.03;100.00;98520.88;8419049;28;20043;-80
2021/12/01 05:56:45;;;;;;;6.22;4.28;;;;;;;4.97;100.00;98521.88;8459886;28;20044;-81
2021/12/01 06:00:46;;;;;;;5.47;3.20;;;;;;;4.87;100.00;98503.38;8402598;28;20032;-80
2021/12/01 06:04:48;;;;;;;8.50;4.07;;;;;;;4.84;100.00;98503.06;8424821;28;20060;-81
2021/12/01 06:08:48;;;;;;;5.65;3.15;;;;;;;4.86;100.00;98503.66;8428063;28;20036;-81
2021/12/01 06:12:49;;;;;;;7.30;4.00;;;;;;;4.89;100.00;98493.06;8420418;28;20119;-79
2021/12/01 06:16:49;;;;;;;6.00;3.42;;;;;;;4.91;100.00;98495.56;8421066;28;20121;-81
2021/12/01 06:20:50;;;;;;;5.75;2.90;;;;;;;4.89;100.00;98494.97;8412622;28;20040;-80
2021/12/01 06:24:50;;;;;;;5.47;3.05;;;;;;;4.90;100.00;98486.50;8426763;28;20519;-80
2021/12/01 06:28:51;;;;;;;5.65;2.72;;;;;;;4.87;100.00;98484.28;8418519;28;20405;-80
2021/12/01 06:32:52;;;;;;;5.05;2.30;;;;;;;4.95;100.00;98463.94;8421540;28;20092;-81
2021/12/01 06:36:53;;;;;;;3.53;2.80;;;;;;;4.95;100.00;98448.41;8422150;28;20044;-79
2021/12/01 06:40:53;;;;;;;5.60;2.65;;;;;;;4.96;100.00;98444.59;8427056;28;20069;-78
2021/12/01 06:44:54;;;;;;;7.70;2.67;;;;;;;5.01;100.00;98422.00;8420703;28;20052;-80
2021/12/01 06:48:56;;;;;;;5.15;2.22;;;;;;;5.02;100.00;98418.19;8399454;28;20043;-79
2021/12/01 06:52:56;;;;;;;5.95;2.60;;;;;;;5.11;100.00;98402.22;8444045;28;20039;-79
2021/12/01 06:56:57;;;;;;;6.55;2.42;;;;;;;5.07;100.00;98395.63;8409916;28;20040;-79
2021/12/01 07:00:57;;;;;;;4.75;2.25;;;;;;;5.06;100.00;98399.41;8426532;28;20065;-79
2021/12/01 07:04:58;;;;;;;5.05;2.30;;;;;;;5.11;100.00;98380.38;8418631;28;20101;-79
2021/12/01 07:09:01;;;;;;;4.73;2.00;;;;;;;5.13;100.00;98380.97;8436004;28;20086;-78
2021/12/01 07:13:01;;;;;;;6.85;1.90;;;;;;;5.17;100.00;98372.03;8412974;28;20288;-81
2021/12/01 07:17:03;;;;;;;3.22;1.60;;;;;;;5.23;100.00;98356.53;8447970;28;20039;-80
2021/12/01 07:21:04;;;;;;;2.67;1.27;;;;;;;5.21;100.00;98343.16;8456058;28;20051;-79
2021/12/01 07:25:06;;;;;;;4.00;1.52;;;;;;;5.25;100.00;98332.53;8428576;28;20054;-79
2021/12/01 07:29:06;;;;;;;2.85;1.50;;;;;;;5.28;100.00;98329.31;8423057;28;20036;-80
2021/12/01 07:33:07;;;;;;;4.15;1.80;;;;;;;5.28;100.00;98323.03;8449874;28;20055;-80
2021/12/01 07:37:17;;;;;;;3.13;1.60;;;;;;;5.29;100.00;98317.28;8440797;28;20074;-79
2021/12/01 07:41:18;;;;;;;3.80;1.27;;;;;;;5.25;100.00;98321.63;8394253;28;20041;-80
2021/12/01 07:45:20;;;;;;;2.20;1.42;;;;;;;5.32;100.00;98305.03;8431638;28;20067;-79
2021/12/01 07:49:21;;;;;;;5.25;1.20;;;;;;;5.28;100.00;98295.72;8426865;28;20087;-79
2021/12/01 07:53:47;;;;;;;3.17;1.45;;;;;;;5.29;100.00;98289.97;8440031;28;20084;-80
2021/12/01 07:57:47;;;;;;;7.82;2.03;;;;;;;5.22;100.00;98284.72;8455856;28;20036;-81
2021/12/01 08:01:48;;;;;;;4.68;1.60;;;;;;;5.28;100.00;98273.88;8461226;28;20116;-80
2021/12/01 08:05:48;;;;;;;3.22;1.58;;;;;;;5.27;100.00;98248.47;8462488;28;20036;-78
2021/12/01 08:09:49;;;;;;;4.53;1.83;;;;;;;5.42;100.00;98239.63;8466905;28;20036;-81
2021/12/01 08:13:49;;;;;;;5.03;1.48;;;;;;;5.44;100.00;98221.06;8432000;28;20047;-80
2021/12/01 08:17:50;;;;;;;3.75;1.50;;;;;;;5.53;100.00;98226.91;8431329;28;20388;-81
2021/12/01 08:21:50;;;;;;;4.20;2.10;;;;;;;5.53;100.00;98205.03;8452259;28;20050;-80
2021/12/01 08:25:51;;;;;;;2.42;1.20;;;;;;;5.57;100.00;98189.81;8426430;28;20044;-82
2021/12/01 08:29:52;;;;;;;3.70;1.00;;;;;;;5.53;100.00;98169.53;8411375;28;20044;-80
2021/12/01 08:33:52;;;;;;;4.00;1.20;;;;;;;5.55;100.00;98161.91;8418288;28;20031;-81
2021/12/01 08:37:53;;;;;;;2.15;1.23;;;;;;;5.55;100.00;98184.59;8411200;28;20025;-81
2021/12/01 08:41:54;;;;;;;3.08;1.20;;;;;;;5.66;100.00;98167.22;8409424;28;20052;-80
2021/12/01 08:45:54;;;;;;;1.70;1.13;;;;;;;5.68;100.00;98180.59;8415058;28;20050;-79
2021/12/01 08:49:55;;;;;;;2.70;1.17;;;;;;;5.79;100.00;98171.44;8425431;28;20043;-79
2021/12/01 08:53:55;;;;;;;2.33;1.02;;;;;;;5.76;100.00;98163.75;8419298;28;20048;-79
2021/12/01 08:57:56;;;;;;;2.38;1.00;;;;;;;5.75;100.00;98153.09;8451613;28;20055;-79
2021/12/01 09:01:56;;;;;;;2.60;0.90;;;;;;;5.73;100.00;98156.06;8439215;28;20654;-79
2021/12/01 09:05:57;;;;;;;6.60;1.30;;;;;;;5.87;100.00;98149.09;8450854;28;20046;-80
2021/12/01 09:09:57;;;;;;;2.65;1.02;;;;;;;5.91;100.00;98144.75;8418471;28;20036;-80
2021/12/01 09:13:58;;;;;;;2.25;0.90;;;;;;;5.95;100.00;98142.38;8442809;28;20035;-79
2021/12/01 09:17:58;;;;;;;1.88;1.00;;;;;;;5.94;100.00;98127.03;8435688;28;20044;-79
2021/12/01 09:21:59;;;;;;;3.20;1.10;;;;;;;5.91;100.00;98111.94;8411016;28;20067;-79
2021/12/01 09:25:59;;;;;;;2.97;1.20;;;;;;;5.93;100.00;98118.03;8409950;28;20037;-79
2021/12/01 09:30:00;;;;;;;1.80;0.93;;;;;;;6.05;100.00;98128.78;8408167;28;20037;-80
2021/12/01 09:34:00;;;;;;;2.90;0.88;;;;;;;6.05;100.00;98109.63;8391883;28;20059;-80
2021/12/01 09:38:01;;;;;;;2.28;1.27;;;;;;;6.06;100.00;98108.53;8373023;28;20072;-78
2021/12/01 09:42:01;;;;;;;3.10;1.13;;;;;;;6.14;100.00;98096.31;8349528;28;20056;-79
2021/12/01 09:46:08;;;;;;;1.77;1.02;;;;;;;6.12;100.00;98101.19;8373382;28;20059;-77
2021/12/01 09:50:11;;;;;;;1.15;0.88;;;;;;;6.18;100.00;98091.94;8379811;28;20082;-79
2021/12/01 09:54:11;;;;;;;3.00;1.10;;;;;;;6.14;100.00;98077.97;8343850;28;20041;-78
2021/12/01 09:58:18;;;;;;;3.75;1.30;;;;;;;6.16;100.00;98059.41;8374769;28;20443;-78
2021/12/01 10:02:26;;;;;;;3.05;1.30;;;;;;;6.22;100.00;98054.78;8352721;28;20056;-79
2021/12/01 10:06:27;;;;;;;1.98;1.38;;;;;;;6.27;100.00;98046.59;8375633;28;20032;-78
2021/12/01 10:10:27;;;;;;;2.63;1.27;;;;;;;6.43;100.00;98030.28;8365552;28;20040;-82
2021/12/01 10:14:29;;;;;;;1.02;0.70;;;;;;;6.59;100.00;98021.84;8382478;28;20052;-78
2021/12/01 10:18:35;;;;;;;2.38;1.20;;;;;;;6.68;100.00;98002.19;8361071;28;20048;-78
2021/12/01 10:22:36;;;;;;;2.50;0.85;;;;;;;6.75;100.00;97995.38;8376111;28;20602;-78
2021/12/01 10:26:38;;;;;;;1.83;0.80;;;;;;;6.74;100.00;97982.75;8382421;28;20043;-79
2021/12/01 10:30:43;;;;;;;2.40;0.80;;;;;;;6.82;100.00;97974.03;8380983;28;20358;-78
2021/12/01 10:34:52;;;;;;;3.30;0.73;;;;;;;6.77;100.00;97959.50;8346488;28;20048;-77
2021/12/01 10:39:05;;;;;;;1.35;0.75;;;;;;;6.74;100.00;97963.59;8373859;28;20037;-78
2021/12/01 10:43:11;;;;;;;1.55;0.80;;;;;;;6.78;100.00;97939.25;8345476;28;20068;-79
2021/12/01 10:47:12;;;;;;;;;;;;;;;6.81;100.00;97939.53;8369783;28;20037;-79
2021/12/01 10:51:32;;;;;;;0.93;0.60;;;;;;;6.77;100.00;97921.19;8376819;28;19962;-79
2021/12/01 10:55:34;;;;;;;2.03;0.70;;;;;;;6.79;100.00;97908.88;8343067;28;20045;-80
2021/12/01 10:59:44;;;;;;;1.80;0.77;;;;;;;6.86;100.00;97925.03;8368731;28;20075;-78
2021/12/01 11:03:46;;;;;;;1.17;0.70;;;;;;;6.86;100.00;97897.66;8359213;28;20455;-80
2021/12/01 11:07:47;;;;;;;1.40;0.70;;;;;;;6.90;100.00;97898.75;8376941;28;20071;-79
2021/12/01 11:11:50;;;;;;;2.67;0.70;;;;;;;7.03;100.00;97895.47;8377939;28;20044;-80
2021/12/01 11:15:56;;;;;;;2.00;0.60;;;;;;;7.17;100.00;97897.66;8377882;28;20118;-79
2021/12/01 11:19:57;;;;;;;1.77;0.60;;;;;;;7.19;100.00;97904.50;8376974;28;20044;-79
2021/12/01 11:24:07;;;;;;;1.92;0.85;;;;;;;7.19;100.00;97896.28;8361187;28;20036;-79
2021/12/01 11:28:12;;;;;;;1.75;0.77;;;;;;;7.12;100.00;97882.06;8346320;28;20044;-79
2021/12/01 11:32:13;;;;;;;2.95;0.90;;;;;;;7.18;100.00;97871.91;8361341;28;20052;-78
2021/12/01 11:36:19;;;;;;;1.35;0.85;;;;;;;7.16;100.00;97874.09;8352244;28;20395;-79
2021/12/01 11:40:22;;;;;;;0.63;0.50;;;;;;;7.14;100.00;97865.31;8346916;28;20489;-79
2021/12/01 11:44:29;;;;;;;3.50;1.27;;;;;;;7.18;100.00;97842.59;8347560;28;20037;-79
2021/12/01 11:48:32;;;;;;;2.28;0.73;;;;;;;7.24;100.00;97833.28;8372728;28;20175;-77
2021/12/01 11:52:41;;;;;;;1.40;0.80;;;;;;;7.26;100.00;97833.00;8355000;28;20685;-76
2021/12/01 11:56:59;;;;;;;2.67;0.77;;;;;;;7.40;100.00;97812.13;8338687;28;20044;-78
2021/12/01 12:00:59;;;;;;;1.08;0.60;;;;;;;7.43;100.00;97813.50;8363191;28;20041;-78
2021/12/01 12:05:00;;;;;;;1.58;0.70;;;;;;;7.50;100.00;97797.63;8374315;28;20580;-76
2021/12/01 12:09:04;;;;;;;2.45;0.80;;;;;;;7.54;100.00;97787.72;8378653;28;20084;-81
2021/12/01 12:13:07;;;;;;;1.70;0.65;;;;;;;7.49;100.00;97790.47;8354882;28;20045;-81
2021/12/01 12:17:13;;;;;;;2.92;0.70;;;;;;;7.50;100.00;97779.25;8349984;28;20045;-77
2021/12/01 12:21:20;;;;;;;3.05;0.90;;;;;;;7.60;100.00;97761.13;8372208;28;20559;-77
2021/12/01 12:25:37;;;;;;;2.95;1.58;;;;;;;7.69;99.49;97756.69;8353163;28;20386;-77
2021/12/01 12:29:44;;;;;;;1.65;0.98;;;;;;;7.69;99.20;97749.28;8352878;28;20044;-78
2021/12/01 12:33:54;;;;;;;3.78;1.90;;;;;;;7.73;99.17;97746.78;8370816;28;20488;-77
2021/12/01 12:38:07;;;;;;;3.70;1.35;;;;;;;7.75;99.78;97739.09;8378744;28;20036;-78
2021/12/01 12:42:09;;;;;;;3.75;0.90;;;;;;;7.75;99.55;97742.66;8373048;28;20036;-80
2021/12/01 12:46:19;;;;;;;2.38;0.98;;;;;;;7.76;99.42;97730.63;8382639;28;20064;-79
2021/12/01 12:50:24;;;;;;;1.83;0.85;;;;;;;7.74;99.51;97721.84;8348980;28;20056;-78
2021/12/01 12:54:24;;;;;;;1.38;1.08;;;;;;;7.67;99.95;97720.50;8356522;28;20606;-78
2021/12/01 12:58:36;;;;;;;4.97;1.88;;;;;;;7.61;100.00;97710.66;8350334;28;20532;-77
2021/12/01 13:02:37;;;;;;;1.83;1.20;;;;;;;7.63;100.00;97714.78;8385008;28;20464;-80
2021/12/01 13:06:37;;;;;;;3.22;1.10;;;;;;;7.63;100.00;97706.53;8367428;28;20045;-78
2021/12/01 13:10:40;;;;;;;8.68;3.20;;;;;;;7.69;100.00;97699.94;8369882;28;20063;-77
2021/12/01 13:14:40;;;;;;;4.72;2.20;;;;;;;7.71;100.00;97697.72;8379226;28;20126;-78
2021/12/01 13:18:44;;;;;;;6.15;3.05;;;;;;;7.70;100.00;97685.16;8384705;28;20635;-77
2021/12/01 13:23:26;;;;;;;4.88;2.03;;;;;;;7.73;100.00;97667.28;8372158;28;20075;-78
2021/12/01 13:27:26;;;;;;;7.38;1.83;;;;;;;7.80;100.00;97670.53;8320015;28;20067;-80
2021/12/01 13:31:32;;;;;;;4.15;1.70;;;;;;;7.80;100.00;97656.03;8383950;28;20053;-77
2021/12/01 13:35:32;;;;;;;3.00;1.27;;;;;;;7.73;100.00;97646.19;8362686;28;20048;-78
2021/12/01 13:39:39;;;;;;;2.58;1.30;;;;;;;7.76;100.00;97647.53;8364338;28;20091;-77
2021/12/01 13:43:41;;;;;;;2.17;1.10;;;;;;;7.80;100.00;97643.13;8373870;28;20047;-77
2021/12/01 13:47:44;;;;;;;3.25;0.90;;;;;;;7.80;100.00;97637.66;8364261;28;20053;-79
2021/12/01 13:51:48;;;;;;;2.13;1.10;;;;;;;7.78;100.00;97625.31;8369494;28;20037;-78
2021/12/01 13:55:48;;;;;;;1.83;0.95;;;;;;;7.76;100.00;97626.44;8366179;28;20037;-78
2021/12/01 13:59:51;;;;;;;1.50;0.87;;;;;;;7.69;100.00;97625.09;8366126;28;20052;-78
2021/12/01 14:03:58;;;;;;;2.85;1.02;;;;;;;7.78;100.00;97626.13;8357384;28;20756;-79
2021/12/01 14:08:30;;;;;;;3.83;1.20;;;;;;;7.79;100.00;97626.94;8378398;28;20046;-80
2021/12/01 14:12:36;;;;;;;3.35;0.90;;;;;;;7.87;100.00;97618.94;8368052;28;20103;-78
2021/12/01 14:16:43;;;;;;;1.45;0.80;;;;;;;7.83;100.00;97614.31;8389294;28;20048;-79
2021/12/01 14:20:45;;;;;;;1.67;0.68;;;;;;;7.91;100.00;97610.94;8379855;28;20067;-79
2021/12/01 14:24:55;;;;;;;1.50;0.60;;;;;;;7.96;100.00;97617.22;8375116;28;20033;-78
2021/12/01 14:28:57;;;;;;;1.10;0.70;;;;;;;8.03;100.00;97627.88;8351940;28;20045;-79
2021/12/01 14:32:58;;;;;;;1.75;0.70;;;;;;;8.01;99.85;97627.34;8382234;28;20124;-79
2021/12/01 14:37:00;;;;;;;0.60;0.30;;;;;;;8.12;98.53;97625.31;8379890;28;20044;-79
2021/12/01 14:41:06;;;;;;;6.57;0.65;;;;;;;8.15;95.90;97622.00;8374713;28;20040;-79
2021/12/01 14:45:08;;;;;;;0.60;0.40;;;;;;;8.18;94.21;97629.69;8384762;28;20048;-78
2021/12/01 14:49:14;;;;;;;0.43;0.20;;;;;;;8.29;93.15;97630.38;8386525;28;20037;-78
2021/12/01 14:53:18;;;;;;;2.47;0.30;;;;;;;8.27;92.25;97646.31;8349677;28;20456;-78
2021/12/01 14:57:18;;;;;;;0.38;0.20;;;;;;;8.38;92.42;97653.34;8372452;28;20044;-79
2021/12/01 15:01:19;;;;;;;1.08;0.40;;;;;;;8.38;91.96;97643.22;8354606;28;20048;-78
2021/12/01 15:05:23;;;;;;;1.00;0.50;;;;;;;8.46;91.72;97646.47;8369465;28;20061;-78
2021/12/01 15:09:36;;;;;;;1.67;0.65;;;;;;;8.40;91.33;97653.94;8350318;28;20453;-78
2021/12/01 15:13:39;;;;;;;0.50;0.40;;;;;;;8.44;90.83;97657.72;8375510;28;20044;-80
2021/12/01 15:17:40;;;;;;;;;;;;;;;8.33;91.86;97650.66;8374992;28;20072;-80
2021/12/01 15:21:48;;;;;;;1.07;0.33;;;;;;;8.28;93.51;97647.97;8388454;28;19983;-79
2021/12/01 15:25:49;;;;;;;0.85;0.30;;;;;;;8.05;96.52;97649.53;8373297;28;20049;-79
2021/12/01 15:29:49;;;;;;;0.75;0.55;;;;;;;7.78;99.54;97644.50;8338008;28;20505;-79
2021/12/01 15:33:50;;;;;;;1.17;0.40;;;;;;;7.49;100.00;97661.66;8365728;28;20044;-79
2021/12/01 15:37:50;;;;;;;1.83;0.52;;;;;;;7.41;100.00;97662.28;8379748;28;20337;-80
2021/12/01 15:41:55;;;;;;;0.20;0.20;;;;;;;7.45;100.00;97660.59;8380310;28;20040;-79
2021/12/01 15:45:55;;;;;;;0.30;0.30;;;;;;;7.38;100.00;97674.63;8382338;28;20372;-79
2021/12/01 15:49:56;;;;;;;0.93;0.40;;;;;;;7.33;100.00;97679.31;8368917;28;20033;-80
2021/12/01 15:53:56;;;;;;;2.85;0.50;;;;;;;7.29;100.00;97685.34;8387646;28;20188;-79
2021/12/01 15:57:58;;;;;;;2.55;0.70;;;;;;;7.30;100.00;97681.50;8363684;28;20080;-80
2021/12/01 16:01:58;;;;;;;1.13;0.60;;;;;;;7.34;100.00;97672.72;8369369;28;20040;-80
2021/12/01 16:05:59;;;;;;;1.70;0.63;;;;;;;7.32;100.00;97664.78;8389441;28;20063;-79
2021/12/01 16:09:59;;;;;;;1.42;0.70;;;;;;;7.37;100.00;97670.22;8394485;28;20449;-80
2021/12/01 16:14:00;;;;;;;1.27;0.60;;;;;;;7.36;100.00;97684.22;8386073;28;20045;-81
2021/12/01 16:18:00;;;;;;;1.10;0.60;;;;;;;7.37;100.00;97689.41;8381805;28;20093;-81
2021/12/01 16:22:02;;;;;;;1.80;0.85;;;;;;;7.42;100.00;97699.53;8369876;28;20379;-80
2021/12/01 16:26:04;;;;;;;1.52;0.70;;;;;;;7.40;100.00;97694.31;8386742;28;20045;-80
2021/12/01 16:30:10;;;;;;;0.95;0.43;;;;;;;7.49;100.00;97702.78;8391405;28;20055;-79
2021/12/01 16:34:10;;;;;;;1.35;0.60;;;;;;;7.50;100.00;97716.22;8357150;28;20083;-79
2021/12/01 16:38:13;;;;;;;1.80;0.75;;;;;;;7.48;100.00;97709.38;8392124;28;20118;-79
2021/12/01 16:42:13;;;;;;;0.95;0.70;;;;;;;7.53;100.00;97720.31;8358780;28;20131;-80
2021/12/01 16:46:14;;;;;;;2.60;1.10;;;;;;;7.51;100.00;97727.97;8373859;28;20073;-79
2021/12/01 16:50:16;;;;;;;2.13;1.00;;;;;;;7.57;100.00;97723.31;8345872;28;20057;-79
2021/12/01 16:54:16;;;;;;;2.90;1.17;;;;;;;7.52;100.00;97744.16;8387518;28;20171;-79
2021/12/01 16:58:17;;;;;;;2.42;1.30;;;;;;;7.47;100.00;97748.84;8363155;28;20056;-80
2021/12/01 17:02:18;;;;;;;1.70;0.80;;;;;;;7.40;100.00;97754.59;8376430;28;20048;-80
2021/12/01 17:06:32;;;;;;;2.30;0.90;;;;;;;7.38;100.00;97745.84;8357466;28;20061;-79
2021/12/01 17:10:36;;;;;;;3.10;1.00;;;;;;;7.33;100.00;97753.28;8382287;28;20098;-79
2021/12/01 17:14:39;;;;;;;1.30;0.80;;;;;;;7.26;100.00;97765.34;8359012;28;20063;-79
2021/12/01 17:18:42;;;;;;;1.15;0.88;;;;;;;7.20;100.00;97771.94;8377733;28;20036;-79
2021/12/01 17:22:43;;;;;;;0.77;0.60;;;;;;;7.10;100.00;97782.91;8370418;28;20127;-80
2021/12/01 17:26:44;;;;;;;0.98;0.50;;;;;;;7.03;100.00;97788.66;8361344;28;20421;-79
2021/12/01 17:31:02;;;;;;;1.65;0.65;;;;;;;6.91;100.00;97792.81;8379031;28;20039;-80
2021/12/01 17:35:03;;;;;;;1.35;0.68;;;;;;;6.90;100.00;97805.69;8374073;28;20075;-79
2021/12/01 17:39:05;;;;;;;0.80;0.57;;;;;;;6.89;100.00;97814.97;8365379;28;20100;-79
2021/12/01 17:43:05;;;;;;;0.80;0.60;;;;;;;6.87;100.00;97819.91;8357083;28;20045;-78
2021/12/01 17:47:08;;;;;;;1.60;1.00;;;;;;;6.90;100.00;97810.31;8345665;28;20080;-79
2021/12/01 17:51:10;;;;;;;1.25;0.85;;;;;;;6.85;100.00;97820.19;8389455;28;20127;-80
2021/12/01 17:55:14;;;;;;;1.55;0.88;;;;;;;6.81;100.00;97799.94;8389172;28;20154;-79
2021/12/01 17:59:15;;;;;;;1.88;0.95;;;;;;;6.70;100.00;97816.63;8373101;28;20052;-79
2021/12/01 18:03:18;;;;;;;2.03;1.15;;;;;;;6.63;100.00;97814.13;8364038;28;20071;-81
2021/12/01 18:07:23;;;;;;;1.15;0.80;;;;;;;6.59;100.00;97822.06;8376866;28;20463;-79
2021/12/01 18:11:25;;;;;;;1.45;0.80;;;;;;;6.49;100.00;97826.75;8384020;28;20183;-80
2021/12/01 18:15:25;;;;;;;1.98;1.33;;;;;;;6.44;100.00;97826.72;8373768;28;20049;-79
2021/12/01 18:19:27;;;;;;;4.20;2.30;;;;;;;6.38;100.00;97814.94;8359557;28;20460;-80
2021/12/01 18:23:27;;;;;;;4.32;1.10;;;;;;;6.30;100.00;97816.28;8370202;28;20041;-80
2021/12/01 18:27:28;;;;;;;1.90;1.20;;;;;;;6.23;100.00;97823.94;8366686;28;20041;-79
2021/12/01 18:31:28;;;;;;;4.03;1.10;;;;;;;6.17;100.00;97827.75;8375087;28;20047;-81
2021/12/01 18:35:33;;;;;;;1.73;0.80;;;;;;;6.15;100.00;97838.13;8353633;28;20479;-79
2021/12/01 18:39:34;;;;;;;2.13;1.20;;;;;;;6.15;99.64;97843.59;8350928;28;20106;-79
2021/12/01 18:43:34;;;;;;;5.03;1.15;;;;;;;6.24;99.42;97850.19;8370016;28;20430;-78
2021/12/01 18:47:36;;;;;;;1.38;0.60;;;;;;;6.33;100.00;97850.50;8369874;28;20405;-80
2021/12/01 18:51:36;;;;;;;1.08;0.80;;;;;;;6.35;99.79;97842.84;8346447;28;20052;-81
2021/12/01 18:55:37;;;;;;;3.75;1.70;;;;;;;6.35;99.70;97849.13;8372963;28;20107;-80
2021/12/01 18:59:37;;;;;;;3.80;1.20;;;;;;;6.30;100.00;97868.25;8374194;28;20047;-80
2021/12/01 19:03:38;;;;;;;2.45;1.20;;;;;;;6.29;100.00;97869.38;8363753;28;20466;-80
2021/12/01 19:07:40;;;;;;;3.83;1.30;;;;;;;6.25;100.00;97871.00;8372173;28;20047;-81
2021/12/01 19:11:41;;;;;;;4.10;1.80;;;;;;;6.19;100.00;97879.44;8350290;28;20046;-80
2021/12/01 19:15:41;;;;;;;2.85;1.80;;;;;;;6.17;100.00;97885.19;8352355;28;20032;-81